createdAt,value
2022-11-16T00:02:45.108Z,99979.94
2022-11-16T00:08:07.827Z,99958.69
2022-11-16T00:13:33.346Z,99972.47
2022-11-16T00:19:00.738Z,99973.91
2022-11-16T00:24:28.286Z,99966.63
2022-11-16T00:29:53.633Z,99973.50
2022-11-16T00:35:20.007Z,99942.69
2022-11-16T00:40:50.847Z,99938.03
2022-11-16T00:46:13.705Z,99946.34
2022-11-16T00:51:37.309Z,100003.31
2022-11-16T00:57:00.166Z,99999.88
2022-11-16T01:02:22.923Z,99952.41
2022-11-16T01:07:45.427Z,99948.34
2022-11-16T01:13:07.868Z,99931.72
2022-11-16T01:18:30.045Z,99947.94
2022-11-16T01:23:52.831Z,99962.34
2022-11-16T01:29:15.145Z,99947.53
2022-11-16T01:34:43.626Z,99941.84
2022-11-16T01:40:18.207Z,99935.75
2022-11-16T01:45:43.089Z,99954.63
2022-11-16T01:51:07.727Z,99971.06
2022-11-16T01:56:32.526Z,99975.91
2022-11-16T02:02:04.845Z,99958.88
2022-11-16T02:08:17.287Z,99984.03
2022-11-16T02:13:51.483Z,99984.44
2022-11-16T02:19:38.713Z,99983.00
2022-11-16T02:25:20.965Z,99991.31
2022-11-16T02:30:50.227Z,99986.00
2022-11-16T02:36:17.664Z,99961.16
2022-11-16T02:41:43.303Z,99961.94
2022-11-16T02:47:23.608Z,99963.97
2022-11-16T02:52:46.984Z,99977.78
2022-11-16T02:58:13.244Z,99965.97
2022-11-16T03:03:44.703Z,99981.38
2022-11-16T03:09:12.905Z,99978.84
2022-11-16T03:14:46.603Z,99993.81
2022-11-16T03:26:02.045Z,99962.06
2022-11-16T03:37:17.147Z,99998.59
2022-11-16T03:49:05.464Z,99926.78
2022-11-16T03:54:58.767Z,100008.00
2022-11-16T04:00:44.114Z,99926.06
2022-11-16T04:06:28.900Z,99947.19
2022-11-16T04:12:10.564Z,99987.19
2022-11-16T04:17:52.365Z,99935.47
2022-11-16T04:23:35.599Z,99949.31
2022-11-16T04:29:02.506Z,99949.22
2022-11-16T04:34:47.007Z,99931.16
2022-11-16T04:40:30.326Z,99934.78
2022-11-16T04:46:27.590Z,99979.59
2022-11-16T04:52:03.388Z,99940.81
2022-11-16T04:57:40.759Z,99927.41
2022-11-16T05:03:11.427Z,99936.56
2022-11-16T05:08:51.007Z,99936.06
2022-11-16T05:14:33.834Z,99919.66
2022-11-16T05:56:26.322Z,99991.63
2022-11-16T06:01:51.075Z,100005.38
2022-11-16T06:07:13.310Z,100009.22
2022-11-16T06:12:35.926Z,99997.88
2022-11-16T06:17:58.185Z,100017.78
2022-11-16T06:23:20.334Z,99977.28
2022-11-16T06:28:43.065Z,99997.88
2022-11-16T06:34:05.388Z,99999.63
2022-11-16T06:39:31.086Z,100018.19
2022-11-16T06:44:53.577Z,100014.47
2022-11-16T06:50:20.767Z,100003.75
2022-11-16T06:55:49.105Z,100012.44
2022-11-16T07:01:16.794Z,99965.81
2022-11-16T07:06:43.506Z,99965.44
2022-11-16T07:12:14.887Z,99983.91
2022-11-16T07:18:10.786Z,99961.44
2022-11-16T07:23:36.110Z,99954.06
2022-11-16T07:29:00.568Z,99996.34
2022-11-16T07:34:23.985Z,99963.03
2022-11-16T07:40:17.467Z,99996.75
2022-11-16T07:45:42.526Z,99969.13
2022-11-16T07:51:09.348Z,99972.78
2022-11-16T07:56:39.577Z,99977.19
2022-11-16T08:02:03.695Z,99959.75
2022-11-16T08:07:27.945Z,99970.53
2022-11-16T08:12:53.286Z,99965.25
2022-11-16T08:18:23.366Z,99948.16
2022-11-16T08:23:57.834Z,99951.09
2022-11-16T08:29:21.609Z,99962.28
2022-11-16T08:34:47.010Z,99988.34
2022-11-16T08:40:12.589Z,99940.06
2022-11-16T08:45:38.209Z,99948.63
2022-11-16T08:51:18.424Z,99946.41
2022-11-16T08:56:47.026Z,99949.50
2022-11-16T09:02:13.634Z,99945.81
2022-11-16T09:07:36.830Z,99993.94
2022-11-16T09:13:06.826Z,99943.25
2022-11-16T09:18:34.999Z,99953.91
2022-11-16T09:24:05.687Z,99959.75
2022-11-16T09:29:49.666Z,99947.19
2022-11-16T09:35:45.686Z,99946.34
2022-11-16T09:48:20.769Z,99933.28
2022-11-16T10:00:13.536Z,99958.41
2022-11-16T10:05:47.335Z,99985.09
2022-11-16T10:11:15.047Z,99969.72
2022-11-16T10:16:49.368Z,99968.91
2022-11-16T10:22:23.387Z,99980.22
2022-11-16T10:28:07.070Z,99975.28
2022-11-16T10:33:36.791Z,99917.97
2022-11-16T10:39:03.246Z,99927.69
2022-11-16T10:45:25.526Z,99915.34
2022-11-16T10:50:53.707Z,99896.97
2022-11-16T10:56:28.787Z,99894.75
2022-11-16T11:08:34.967Z,99905.56
2022-11-16T11:14:23.327Z,99895.28
2022-11-16T11:19:58.991Z,99941.97
2022-11-16T11:25:20.988Z,99939.41
2022-11-16T11:30:52.228Z,99915.63
2022-11-16T11:36:23.107Z,99943.41
2022-11-16T11:41:47.605Z,99932.22
2022-11-16T11:47:58.784Z,99880.44
2022-11-16T11:53:58.065Z,99933.94
2022-11-16T11:59:24.545Z,99937.97
2022-11-16T12:04:56.290Z,99948.97
2022-11-16T12:10:37.246Z,99947.00
2022-11-16T12:16:08.549Z,99948.47
2022-11-16T12:22:09.284Z,99954.75
2022-11-16T12:27:49.745Z,99947.72
2022-11-16T12:33:50.378Z,99950.13
2022-11-16T12:39:25.328Z,99957.63
2022-11-16T12:45:15.399Z,99956.41
2022-11-16T12:51:04.225Z,99949.88
2022-11-16T12:56:34.866Z,99953.31
2022-11-16T13:02:22.264Z,99944.84
2022-11-16T13:08:03.705Z,99932.66
2022-11-16T13:13:36.773Z,99938.38
2022-11-16T13:19:01.987Z,99935.34
2022-11-16T13:24:59.243Z,99928.22
2022-11-16T13:30:52.704Z,99918.50
2022-11-16T13:36:33.185Z,99928.03
2022-11-16T13:42:13.031Z,99929.31
2022-11-16T13:47:35.614Z,99929.31
2022-11-16T13:58:50.773Z,99936.84
2022-11-16T14:04:51.165Z,99935.84
2022-11-16T14:10:36.524Z,99932.16
2022-11-16T14:16:20.665Z,99934.19
2022-11-16T14:21:47.771Z,99936.25
2022-11-16T14:27:30.780Z,99930.97
2022-11-16T14:32:58.024Z,99924.50
2022-11-16T14:38:40.845Z,99931.34
2022-11-16T14:44:03.598Z,99906.25
2022-11-16T14:49:28.544Z,99918.75
2022-11-16T14:54:59.806Z,99925.44
2022-11-16T15:00:23.984Z,99914.34
2022-11-16T15:05:46.800Z,99939.47
2022-11-16T15:11:20.764Z,99934.19
2022-11-16T15:16:53.943Z,99922.00
2022-11-16T15:22:19.284Z,99935.41
2022-11-16T15:27:44.185Z,99916.56
2022-11-16T15:33:12.465Z,99930.31
2022-11-16T15:38:37.987Z,99925.03
2022-11-16T15:44:13.884Z,99926.66
2022-11-16T15:49:40.826Z,99918.31
2022-11-16T15:55:05.344Z,99902.31
2022-11-16T16:00:28.624Z,99914.69
2022-11-16T16:05:50.747Z,99908.41
2022-11-16T16:11:16.005Z,99914.06
2022-11-16T16:16:39.644Z,99912.22
2022-11-16T16:22:03.165Z,99911.44
2022-11-16T16:27:27.166Z,99902.88
2022-11-16T16:32:51.045Z,99898.63
2022-11-16T16:38:14.467Z,99896.78
2022-11-16T16:43:36.835Z,99892.78
2022-11-16T16:48:59.270Z,99898.63
2022-11-16T16:54:21.141Z,99879.38
2022-11-16T16:59:45.785Z,99865.56
2022-11-16T17:05:08.410Z,99874.47
2022-11-16T17:10:30.484Z,99857.72
2022-11-16T17:15:52.805Z,99877.75
2022-11-16T17:21:14.750Z,99863.34
2022-11-16T17:26:37.305Z,99856.50
2022-11-16T17:31:59.835Z,99852.81
2022-11-16T17:37:22.425Z,99854.03
2022-11-16T17:42:53.545Z,99823.91
2022-11-16T17:48:29.946Z,99821.44
2022-11-16T17:53:57.090Z,99828.13
2022-11-16T17:59:27.928Z,99825.97
2022-11-16T18:05:12.185Z,99815.56
2022-11-16T18:10:37.853Z,99810.25
2022-11-16T18:16:24.484Z,99828.50
2022-11-16T18:21:53.412Z,99803.56
2022-11-16T18:27:16.129Z,99824.84
2022-11-16T18:32:38.492Z,99824.22
2022-11-16T18:38:03.847Z,99817.81
2022-11-16T18:43:27.419Z,99821.44
2022-11-16T18:48:59.221Z,99831.97
2022-11-16T18:54:26.519Z,99813.13
2022-11-16T18:59:48.876Z,99805.03
2022-11-16T19:05:11.348Z,99794.91
2022-11-16T19:10:41.886Z,99805.84
2022-11-16T19:16:04.687Z,99802.63
2022-11-16T19:21:30.186Z,99801.22
2022-11-16T19:26:55.139Z,99794.75
2022-11-16T19:32:20.724Z,99790.31
2022-11-16T19:37:45.085Z,99809.34
2022-11-16T19:43:07.007Z,99793.59
2022-11-16T19:48:33.955Z,99781.28
2022-11-16T19:53:56.624Z,99792.41
2022-11-16T19:59:20.083Z,99781.09
2022-11-16T20:04:44.283Z,99781.69
2022-11-16T20:10:07.265Z,99780.06
2022-11-16T20:15:29.627Z,99782.13
2022-11-16T20:20:51.904Z,99799.31
2022-11-16T20:26:15.002Z,99776.84
2022-11-16T20:31:39.004Z,99785.34
2022-11-16T20:37:01.546Z,99781.69
2022-11-16T20:42:25.005Z,99792.41
2022-11-16T20:47:47.570Z,99764.13
2022-11-16T20:53:09.640Z,99764.91
2022-11-16T20:58:33.262Z,99792.03
2022-11-16T21:04:01.083Z,99802.59
2022-11-16T21:09:26.422Z,99798.41
2022-11-16T21:14:51.344Z,99788.50
2022-11-16T21:20:26.831Z,99772.31
2022-11-16T21:25:49.602Z,99759.81
2022-11-16T21:31:14.384Z,99763.06
2022-11-16T21:36:36.828Z,99756.59
2022-11-16T21:41:59.983Z,99744.69
2022-11-16T21:47:22.206Z,99747.97
2022-11-16T21:52:48.643Z,99764.84
2022-11-16T21:58:10.758Z,99752.25
2022-11-16T22:03:34.036Z,99757.09
2022-11-16T22:08:56.417Z,99760.50
2022-11-16T22:14:23.344Z,99750.22
2022-11-16T22:19:45.798Z,99735.38
2022-11-16T22:25:08.486Z,99739.03
2022-11-16T22:30:33.227Z,99751.56
2022-11-16T22:35:55.292Z,99732.34
2022-11-16T22:41:21.325Z,99725.47
2022-11-16T22:46:44.044Z,99734.78
2022-11-16T22:52:06.328Z,99708.88
2022-11-16T22:57:28.765Z,99721.81
2022-11-16T23:02:54.293Z,99729.97
2022-11-16T23:08:16.439Z,99714.16
2022-11-16T23:13:57.079Z,99712.97
2022-11-16T23:19:39.664Z,99738.47
2022-11-16T23:25:20.619Z,99722.72
2022-11-16T23:30:43.041Z,99730.41
2022-11-16T23:36:05.352Z,99710.56
2022-11-16T23:41:46.159Z,99702.91
2022-11-16T23:47:09.021Z,99718.06
2022-11-16T23:52:31.155Z,99739.13
2022-11-16T23:57:53.841Z,99735.25
